Gage, OK

3:29 PM CST on December 22, 2014 (GMT -0600)
Gage | Change Station
CLOSE
Current Station
Airport
Location: Gage,
Elevation: 2195 ft
Nearby Weather Stations

Elev 2195 ft 36.30 °N, 99.78 °W | Updated 36 minutes ago

Mostly Cloudy
Mostly Cloudy
51 °F
Feels Like 51 °F
N
13
Wind Variable Wind from North

Today
High -- | Low -- °F
--% Chance of Precip.
Yesterday
High -- | Low -- °F
Precip. -- in
7:47 AM 5:28 PM
New Moon, 1% visible
Pressure 29.62 in
Visibility 10.0 miles
Clouds Mostly Cloudy 6500 ft
Dew Point 31 °F
Humidity 46%
Rainfall 0.00 in
Snow Depth Not available.
UV 1 out of 12
Pollen .10 out of 12
Air Quality Not available.
Flu Activity Not available.
METAR KGAG 222053Z AUTO 35011KT 10SM BKN065 11/M01 A2963 RMK AO2 SLP030 T01061006 55007

More Conditions Fewer Conditions

Pressure 29.62 in
Visibility 10.0 miles
Clouds Mostly Cloudy 6500 ft
Dew Point 31 °F
Humidity 46%
Rainfall 0.00 in
Snow Depth Not available.
UV 1 out of 12
Pollen .10 out of 12
Air Quality Not available.
Flu Activity Not available.
METAR KGAG 222053Z AUTO 35011KT 10SM BKN065 11/M01 A2963 RMK AO2 SLP030 T01061006 55007

More Conditions Fewer Conditions

10-Day Weather Forecast

Almanac

Astronomy

Dec. 22, 2014 Rise Set
Actual Time
Civil Twilight
Nautical Twilight
Astronomical Twilight
Moon
Length of Visible Light
Length of Day
Tomorrow will be .
, % of the Moon is Illuminated

Today's Extremes

State Highs State Lows

Community

WunderPhotos

Upload Photos

1,779,682 photos uploaded!

WunderBlogs® & News

Nearby

Air Quality

  Air Quality AQ Index Pollutant
Not available.

Snow Depth

Station Depth Elevation

Earthquake Activity

City Distance Mag. Time & Date
Minimum magnitude displayed is 2.5.

Coastal Water Temperatures

Place Temperature

Nearby Weather Stations